Time;durP1;ratioP1;P1;durP2;ratioP2;P2;SDS_P1;SDS_P2;PMS_P1;PMS_P2;Temp;Humidity;BMP_temperature;BMP_pressure;BME280_temperature;BME280_humidity;BME280_pressure;Samples;Min_cycle;Max_cycle;Signal;HPM_P1;HPM_P2
2021/05/17 00:00:23;;;;;;;1.70;0.80;;;;;;;;;;1480788;40;20022;-65
2021/05/17 00:01:28;;;;;;;1.85;0.60;;;;;;;;;;1480770;40;20029;-65
2021/05/17 00:02:29;;;;;;;0.75;0.50;;;;;;;;;;1480605;40;20055;-65
2021/05/17 00:03:31;;;;;;;1.98;0.57;;;;;;;;;;1480499;40;20392;-65
2021/05/17 00:04:33;;;;;;;1.10;0.50;;;;;;;;;;1480739;40;20037;-66
2021/05/17 00:05:35;;;;;;;0.77;0.68;;;;;;;;;;1480654;40;20033;-65
2021/05/17 00:06:36;;;;;;;0.50;0.40;;;;;;;;;;1480528;40;20029;-65
2021/05/17 00:07:37;;;;;;;1.38;0.50;;;;;;;;;;1480627;40;20041;-65
2021/05/17 00:08:39;;;;;;;1.10;0.55;;;;;;;;;;1480537;40;20048;-65
2021/05/17 00:09:40;;;;;;;1.33;0.47;;;;;;;;;;1480760;40;20029;-65
2021/05/17 00:10:42;;;;;;;1.05;0.50;;;;;;;;;;1480656;40;20029;-65
2021/05/17 00:11:44;;;;;;;1.20;0.40;;;;;;;;;;1480545;40;20032;-65
2021/05/17 00:12:45;;;;;;;1.67;0.40;;;;;;;;;;1480710;40;20033;-66
2021/05/17 00:13:46;;;;;;;0.85;0.40;;;;;;;;;;1515511;22;20037;-61
2021/05/17 00:14:47;;;;;;;0.90;0.50;;;;;;;;;;1480784;40;20036;-62
2021/05/17 00:15:49;;;;;;;0.60;0.38;;;;;;;;;;1480546;40;20025;-61
2021/05/17 00:16:52;;;;;;;1.05;0.50;;;;;;;;;;1480517;40;20356;-62
2021/05/17 00:17:55;;;;;;;1.70;0.60;;;;;;;;;;1480529;40;20025;-62
2021/05/17 00:18:56;;;;;;;0.80;0.40;;;;;;;;;;1480612;40;20270;-62
2021/05/17 00:19:58;;;;;;;0.98;0.40;;;;;;;;;;1480519;40;20026;-62
2021/05/17 00:20:59;;;;;;;0.65;0.30;;;;;;;;;;1480700;40;20041;-61
2021/05/17 00:22:01;;;;;;;1.25;0.40;;;;;;;;;;1480692;40;20029;-62
2021/05/17 00:23:03;;;;;;;0.50;0.40;;;;;;;;;;1480510;40;20280;-62
2021/05/17 00:24:05;;;;;;;0.85;0.40;;;;;;;;;;1480609;40;20103;-61
2021/05/17 00:25:08;;;;;;;0.77;0.38;;;;;;;;;;1480676;40;20036;-61
2021/05/17 00:26:10;;;;;;;0.57;0.40;;;;;;;;;;1480567;40;20032;-62
2021/05/17 00:27:12;;;;;;;0.63;0.40;;;;;;;;;;1480730;40;20048;-62
2021/05/17 00:28:14;;;;;;;0.35;0.28;;;;;;;;;;1480480;40;20390;-62
2021/05/17 00:29:16;;;;;;;1.77;0.40;;;;;;;;;;1480431;40;20041;-61
2021/05/17 00:30:18;;;;;;;1.50;0.50;;;;;;;;;;1480666;40;20033;-61
2021/05/17 00:31:20;;;;;;;0.63;0.40;;;;;;;;;;1480601;40;20025;-62
2021/05/17 00:32:22;;;;;;;1.60;0.63;;;;;;;;;;1480437;40;20029;-62
2021/05/17 00:33:27;;;;;;;0.40;0.40;;;;;;;;;;1480644;40;20033;-62
2021/05/17 00:34:29;;;;;;;0.82;0.40;;;;;;;;;;1480645;40;20103;-62
2021/05/17 00:35:30;;;;;;;0.40;0.40;;;;;;;;;;1480577;40;20029;-62
2021/05/17 00:36:32;;;;;;;0.70;0.50;;;;;;;;;;1480653;40;20035;-62
2021/05/17 00:37:33;;;;;;;0.90;0.40;;;;;;;;;;1480526;40;20029;-62
2021/05/17 00:38:35;;;;;;;1.80;0.70;;;;;;;;;;1480481;40;20308;-62
2021/05/17 00:39:36;;;;;;;0.73;0.45;;;;;;;;;;1480457;40;20025;-62
2021/05/17 00:40:38;;;;;;;0.55;0.40;;;;;;;;;;1480679;40;20111;-62
2021/05/17 00:41:42;;;;;;;1.45;0.50;;;;;;;;;;1480105;40;20039;-62
2021/05/17 00:42:43;;;;;;;1.02;0.40;;;;;;;;;;1479963;40;20033;-62
2021/05/17 00:43:46;;;;;;;1.00;0.60;;;;;;;;;;1479907;40;20036;-62
2021/05/17 00:44:47;;;;;;;0.82;0.40;;;;;;;;;;1480500;40;20411;-62
2021/05/17 00:45:49;;;;;;;0.55;0.40;;;;;;;;;;1480509;40;20017;-61
2021/05/17 00:46:58;;;;;;;0.60;0.40;;;;;;;;;;1480646;40;20114;-62
2021/05/17 00:48:01;;;;;;;0.40;0.30;;;;;;;;;;1480591;40;20025;-61
2021/05/17 00:49:03;;;;;;;1.38;0.60;;;;;;;;;;1480499;40;20037;-61
2021/05/17 00:50:06;;;;;;;0.65;0.40;;;;;;;;;;1480403;40;20392;-62
2021/05/17 00:51:08;;;;;;;1.13;0.57;;;;;;;;;;1480506;40;20029;-62
2021/05/17 00:52:10;;;;;;;0.32;0.30;;;;;;;;;;1480460;40;20481;-62
2021/05/17 00:53:13;;;;;;;2.80;0.60;;;;;;;;;;1480721;40;20120;-61
2021/05/17 00:54:14;;;;;;;0.90;0.32;;;;;;;;;;1480345;40;20033;-62
2021/05/17 00:55:17;;;;;;;0.50;0.30;;;;;;;;;;1480388;40;20033;-62
2021/05/17 00:56:19;;;;;;;1.15;0.40;;;;;;;;;;1480407;40;20033;-62
2021/05/17 00:57:21;;;;;;;1.08;0.40;;;;;;;;;;1480476;40;20066;-62
2021/05/17 00:58:23;;;;;;;2.20;0.50;;;;;;;;;;1480380;40;20037;-62
2021/05/17 00:59:24;;;;;;;0.40;0.38;;;;;;;;;;1479938;40;20476;-62
2021/05/17 01:00:27;;;;;;;0.82;0.45;;;;;;;;;;1475996;40;20044;-62
2021/05/17 01:01:28;;;;;;;1.00;0.60;;;;;;;;;;1479947;40;20128;-62
2021/05/17 01:02:29;;;;;;;1.10;0.63;;;;;;;;;;1480551;40;20037;-62
2021/05/17 01:03:31;;;;;;;1.30;0.50;;;;;;;;;;1480360;40;20389;-61
2021/05/17 01:04:32;;;;;;;0.77;0.50;;;;;;;;;;1480354;40;20388;-61
2021/05/17 01:05:33;;;;;;;0.47;0.40;;;;;;;;;;1480358;40;20029;-62
2021/05/17 01:06:36;;;;;;;1.08;0.40;;;;;;;;;;1480402;40;20032;-62
2021/05/17 01:07:38;;;;;;;0.60;0.40;;;;;;;;;;1480434;40;20069;-61
2021/05/17 01:08:43;;;;;;;1.25;0.50;;;;;;;;;;1480604;40;20032;-62
2021/05/17 01:09:45;;;;;;;0.82;0.40;;;;;;;;;;1480563;40;20030;-61
2021/05/17 01:10:46;;;;;;;2.28;0.47;;;;;;;;;;1480381;40;20036;-61
2021/05/17 01:11:48;;;;;;;0.73;0.52;;;;;;;;;;1480459;40;20407;-62
2021/05/17 01:12:50;;;;;;;0.43;0.30;;;;;;;;;;1480375;40;20412;-62
2021/05/17 01:13:52;;;;;;;1.00;0.50;;;;;;;;;;1480387;40;20422;-62
2021/05/17 01:14:56;;;;;;;0.82;0.40;;;;;;;;;;1480595;40;20031;-62
2021/05/17 01:15:59;;;;;;;1.88;0.60;;;;;;;;;;1480473;40;20096;-62
2021/05/17 01:17:01;;;;;;;1.35;0.70;;;;;;;;;;1480600;40;20069;-62
2021/05/17 01:18:02;;;;;;;1.88;0.60;;;;;;;;;;1479885;40;20094;-62
2021/05/17 01:19:10;;;;;;;0.98;0.60;;;;;;;;;;1475854;40;20038;-62
2021/05/17 01:20:14;;;;;;;1.80;0.60;;;;;;;;;;1479983;40;20029;-62
2021/05/17 01:21:18;;;;;;;1.17;0.60;;;;;;;;;;1480511;40;20029;-62
2021/05/17 01:22:23;;;;;;;0.80;0.50;;;;;;;;;;1480394;40;20022;-61
2021/05/17 01:24:48;;;;;;;1.60;0.73;;;;;;;;;;1478441;40;20045;-62
2021/05/17 01:25:50;;;;;;;2.25;0.70;;;;;;;;;;1480540;40;20037;-62
2021/05/17 01:26:51;;;;;;;2.20;0.63;;;;;;;;;;1480547;40;20036;-62
2021/05/17 01:27:53;;;;;;;1.55;0.60;;;;;;;;;;1480386;40;20292;-62
2021/05/17 01:28:56;;;;;;;1.08;0.50;;;;;;;;;;1480516;40;20041;-61
2021/05/17 01:29:58;;;;;;;1.23;0.77;;;;;;;;;;1480307;40;20055;-62
2021/05/17 01:31:01;;;;;;;2.35;0.70;;;;;;;;;;1480519;40;20029;-62
2021/05/17 01:32:02;;;;;;;1.33;0.60;;;;;;;;;;1480354;40;20410;-62
2021/05/17 01:33:05;;;;;;;2.58;0.60;;;;;;;;;;1480476;40;20026;-62
2021/05/17 01:34:09;;;;;;;2.20;0.80;;;;;;;;;;1480446;40;20057;-61
2021/05/17 01:35:11;;;;;;;0.75;0.50;;;;;;;;;;1480318;40;20029;-61
2021/05/17 01:36:14;;;;;;;1.17;0.50;;;;;;;;;;1480485;40;20037;-62
2021/05/17 01:37:16;;;;;;;1.60;0.82;;;;;;;;;;1480485;40;20056;-62
2021/05/17 01:38:19;;;;;;;1.20;0.70;;;;;;;;;;1480262;40;20049;-61
2021/05/17 01:39:25;;;;;;;1.35;0.70;;;;;;;;;;1480313;40;20368;-62
2021/05/17 01:40:27;;;;;;;1.73;1.00;;;;;;;;;;1480315;40;20021;-62
2021/05/17 01:41:29;;;;;;;1.90;0.70;;;;;;;;;;1480279;40;20351;-62
2021/05/17 01:42:32;;;;;;;1.90;0.63;;;;;;;;;;1480486;40;20036;-62
2021/05/17 01:43:34;;;;;;;2.45;0.60;;;;;;;;;;1480445;40;20033;-62
2021/05/17 01:44:38;;;;;;;1.95;0.70;;;;;;;;;;1480292;40;20316;-62
2021/05/17 01:45:40;;;;;;;2.80;0.70;;;;;;;;;;1480313;40;20036;-61
2021/05/17 01:46:45;;;;;;;1.15;0.65;;;;;;;;;;1480312;40;20025;-61
2021/05/17 01:47:46;;;;;;;2.90;0.88;;;;;;;;;;1480470;40;20025;-62
2021/05/17 01:48:48;;;;;;;2.03;0.70;;;;;;;;;;1480498;40;20039;-62
2021/05/17 01:49:51;;;;;;;2.95;0.90;;;;;;;;;;1480245;40;20029;-62
2021/05/17 01:50:53;;;;;;;1.40;0.70;;;;;;;;;;1480283;40;20029;-62
2021/05/17 01:51:54;;;;;;;1.52;0.60;;;;;;;;;;1480283;40;20037;-61
2021/05/17 01:52:58;;;;;;;1.88;0.50;;;;;;;;;;1480155;40;20040;-61
2021/05/17 01:53:59;;;;;;;0.95;0.60;;;;;;;;;;1479273;40;20033;-62
2021/05/17 01:55:04;;;;;;;0.98;0.50;;;;;;;;;;1479955;40;20033;-62
2021/05/17 01:56:06;;;;;;;2.58;0.80;;;;;;;;;;1480268;40;20080;-62
2021/05/17 01:57:08;;;;;;;1.92;0.70;;;;;;;;;;1480072;40;20029;-61
2021/05/17 01:58:10;;;;;;;1.80;0.80;;;;;;;;;;1480374;40;20029;-61
2021/05/17 01:59:12;;;;;;;1.83;0.80;;;;;;;;;;1480208;40;20327;-62
2021/05/17 02:00:17;;;;;;;2.67;0.80;;;;;;;;;;1479814;40;20420;-62
2021/05/17 02:01:19;;;;;;;2.58;0.70;;;;;;;;;;1479764;40;20021;-62
2021/05/17 02:02:20;;;;;;;0.98;0.60;;;;;;;;;;1480213;40;20029;-62
2021/05/17 02:03:21;;;;;;;1.30;0.80;;;;;;;;;;1480136;40;20025;-61
2021/05/17 02:04:24;;;;;;;2.38;1.00;;;;;;;;;;1480232;40;20036;-62
2021/05/17 02:05:26;;;;;;;2.28;0.95;;;;;;;;;;1480393;40;20076;-62
2021/05/17 02:06:28;;;;;;;1.63;0.75;;;;;;;;;;1480207;40;20056;-62
2021/05/17 02:07:29;;;;;;;1.42;0.75;;;;;;;;;;1479847;40;20109;-62
2021/05/17 02:08:31;;;;;;;1.38;0.77;;;;;;;;;;1479726;40;20033;-62
2021/05/17 02:09:34;;;;;;;1.40;0.60;;;;;;;;;;1480213;40;20037;-62
2021/05/17 02:10:36;;;;;;;1.25;0.60;;;;;;;;;;1480227;40;20021;-61
2021/05/17 02:11:37;;;;;;;0.85;0.55;;;;;;;;;;1480236;40;20044;-62
2021/05/17 02:12:39;;;;;;;2.38;0.70;;;;;;;;;;1480480;40;20025;-62
2021/05/17 02:13:41;;;;;;;1.20;0.70;;;;;;;;;;1480400;40;20037;-63
2021/05/17 02:14:44;;;;;;;1.75;0.77;;;;;;;;;;1480203;40;20033;-62
2021/05/17 02:15:47;;;;;;;2.40;0.80;;;;;;;;;;1480314;40;20366;-62
2021/05/17 02:16:49;;;;;;;1.52;0.68;;;;;;;;;;1480251;40;20029;-62
2021/05/17 02:18:01;;;;;;;2.67;0.80;;;;;;;;;;1480225;40;20304;-62
2021/05/17 02:19:03;;;;;;;3.15;0.95;;;;;;;;;;1480387;40;20034;-62
2021/05/17 02:20:05;;;;;;;1.95;0.90;;;;;;;;;;1480238;40;20392;-61
2021/05/17 02:21:08;;;;;;;1.85;0.90;;;;;;;;;;1480462;40;20037;-62
2021/05/17 02:22:09;;;;;;;1.73;0.70;;;;;;;;;;1480362;40;20036;-62
2021/05/17 02:23:12;;;;;;;2.25;0.80;;;;;;;;;;1480301;40;20065;-62
2021/05/17 02:24:14;;;;;;;1.50;0.60;;;;;;;;;;1480118;40;20033;-62
2021/05/17 02:25:16;;;;;;;1.42;0.82;;;;;;;;;;1480285;40;20299;-61
2021/05/17 02:26:18;;;;;;;1.65;0.80;;;;;;;;;;1480336;40;20029;-61
2021/05/17 02:27:20;;;;;;;1.50;0.70;;;;;;;;;;1480348;40;20081;-62
2021/05/17 02:28:21;;;;;;;2.65;1.00;;;;;;;;;;1479698;40;20029;-62
2021/05/17 02:29:23;;;;;;;2.55;0.90;;;;;;;;;;1479857;40;20041;-62
2021/05/17 02:30:25;;;;;;;1.42;0.80;;;;;;;;;;1480334;40;20041;-62
2021/05/17 02:31:27;;;;;;;1.50;0.70;;;;;;;;;;1480397;40;20038;-62
2021/05/17 02:32:28;;;;;;;2.30;0.75;;;;;;;;;;1480186;40;20040;-62
2021/05/17 02:33:30;;;;;;;1.75;0.68;;;;;;;;;;1480271;40;20068;-62
2021/05/17 02:34:31;;;;;;;1.05;0.68;;;;;;;;;;1480360;40;20107;-62
2021/05/17 02:35:34;;;;;;;1.50;0.68;;;;;;;;;;1480353;40;20037;-62
2021/05/17 02:36:35;;;;;;;1.60;0.70;;;;;;;;;;1480302;40;20104;-62
2021/05/17 02:37:37;;;;;;;2.33;0.80;;;;;;;;;;1480114;40;20040;-61
2021/05/17 02:38:38;;;;;;;2.47;0.68;;;;;;;;;;1480289;40;20131;-61
2021/05/17 02:39:40;;;;;;;3.40;0.93;;;;;;;;;;1480183;40;20118;-62
2021/05/17 02:40:41;;;;;;;2.15;0.70;;;;;;;;;;1480094;40;20371;-62
2021/05/17 02:41:43;;;;;;;1.90;0.77;;;;;;;;;;1480430;40;20029;-61
2021/05/17 02:42:46;;;;;;;2.50;0.85;;;;;;;;;;1480088;40;20025;-62
2021/05/17 02:43:48;;;;;;;1.48;0.90;;;;;;;;;;1480204;40;20036;-61
2021/05/17 02:44:49;;;;;;;2.00;0.88;;;;;;;;;;1480224;40;20029;-61
2021/05/17 02:45:51;;;;;;;1.80;0.70;;;;;;;;;;1480402;40;20040;-62
2021/05/17 02:46:53;;;;;;;2.58;0.80;;;;;;;;;;1480085;40;20036;-62
2021/05/17 02:47:56;;;;;;;1.63;0.75;;;;;;;;;;1480086;40;20385;-62
2021/05/17 02:48:57;;;;;;;2.22;0.73;;;;;;;;;;1480058;40;20029;-62
2021/05/17 02:49:59;;;;;;;3.00;0.90;;;;;;;;;;1480250;40;20029;-61
2021/05/17 02:51:00;;;;;;;3.15;0.90;;;;;;;;;;1480067;40;20045;-62
2021/05/17 02:52:02;;;;;;;2.03;0.77;;;;;;;;;;1480293;40;20033;-62
2021/05/17 02:53:28;;;;;;;3.00;0.90;;;;;;;;;;1480142;40;20151;-62
2021/05/17 02:54:31;;;;;;;2.72;0.90;;;;;;;;;;1480244;40;20049;-61
2021/05/17 02:55:33;;;;;;;2.45;0.70;;;;;;;;;;1480086;40;20273;-62
2021/05/17 02:56:36;;;;;;;1.98;0.80;;;;;;;;;;1480213;40;20029;-62
2021/05/17 02:57:43;;;;;;;2.58;0.70;;;;;;;;;;1480078;40;20397;-61
2021/05/17 02:58:46;;;;;;;2.47;0.70;;;;;;;;;;1480077;40;20041;-62
2021/05/17 03:00:08;;;;;;;2.35;0.70;;;;;;;;;;1480021;40;20025;-62
2021/05/17 03:01:10;;;;;;;2.05;0.85;;;;;;;;;;1480342;40;20033;-62
2021/05/17 03:02:17;;;;;;;2.15;0.77;;;;;;;;;;1480267;40;20120;-62
2021/05/17 03:03:18;;;;;;;1.88;0.70;;;;;;;;;;1480206;40;20045;-61
2021/05/17 03:04:21;;;;;;;1.13;0.60;;;;;;;;;;1479611;40;20300;-63
2021/05/17 03:05:23;;;;;;;1.45;0.73;;;;;;;;;;1480261;40;20044;-62
2021/05/17 03:06:34;;;;;;;1.63;0.70;;;;;;;;;;1480908;40;20026;-62
2021/05/17 03:07:37;;;;;;;;;;;;;;;;;;1481264;40;20391;-62
2021/05/17 03:08:46;;;;;;;2.15;0.60;;;;;;;;;;1480691;40;20275;-62
2021/05/17 03:09:47;;;;;;;2.17;0.70;;;;;;;;;;1480238;40;20037;-62
2021/05/17 03:10:49;;;;;;;1.00;0.52;;;;;;;;;;1480247;40;20115;-62
2021/05/17 03:11:53;;;;;;;1.17;0.60;;;;;;;;;;1480687;40;20374;-63
2021/05/17 03:13:01;;;;;;;1.77;0.50;;;;;;;;;;1480832;40;20033;-63
2021/05/17 03:14:03;;;;;;;2.20;0.73;;;;;;;;;;1480793;40;20384;-62
2021/05/17 03:15:07;;;;;;;1.20;0.60;;;;;;;;;;1480724;40;20041;-62
2021/05/17 03:16:09;;;;;;;2.33;0.70;;;;;;;;;;1480665;40;20032;-62
2021/05/17 03:17:10;;;;;;;0.80;0.50;;;;;;;;;;1480815;40;20033;-62
2021/05/17 03:18:12;;;;;;;1.13;0.50;;;;;;;;;;1480681;40;20385;-61
2021/05/17 03:19:14;;;;;;;1.25;0.40;;;;;;;;;;1480875;40;20036;-62
2021/05/17 03:20:16;;;;;;;1.40;0.70;;;;;;;;;;1480810;40;20056;-62
2021/05/17 03:21:20;;;;;;;1.60;0.80;;;;;;;;;;1480608;40;20033;-62
2021/05/17 03:22:24;;;;;;;2.13;0.60;;;;;;;;;;1480694;40;20049;-62
2021/05/17 03:23:26;;;;;;;1.13;0.68;;;;;;;;;;1480568;40;20088;-61
2021/05/17 03:24:33;;;;;;;1.00;0.57;;;;;;;;;;1480818;40;20032;-62
2021/05/17 03:25:35;;;;;;;1.67;0.60;;;;;;;;;;1480663;40;20037;-62
2021/05/17 03:26:37;;;;;;;1.23;0.50;;;;;;;;;;1480943;40;20029;-61
2021/05/17 03:27:40;;;;;;;1.02;0.60;;;;;;;;;;1480805;40;20029;-62
2021/05/17 03:28:42;;;;;;;2.05;0.70;;;;;;;;;;1480694;40;20352;-62
2021/05/17 03:29:43;;;;;;;1.15;0.50;;;;;;;;;;1480570;40;20300;-62
2021/05/17 03:30:44;;;;;;;0.82;0.50;;;;;;;;;;1480616;40;20021;-62
2021/05/17 03:31:45;;;;;;;1.17;0.70;;;;;;;;;;1480645;40;20411;-61
2021/05/17 03:32:46;;;;;;;0.63;0.43;;;;;;;;;;1480105;40;20025;-62
2021/05/17 03:33:48;;;;;;;2.35;0.57;;;;;;;;;;1480075;40;20489;-62
2021/05/17 03:34:49;;;;;;;1.80;0.60;;;;;;;;;;1480642;40;20029;-62
2021/05/17 03:35:50;;;;;;;0.65;0.40;;;;;;;;;;1480635;40;20442;-61
2021/05/17 03:36:51;;;;;;;1.02;0.50;;;;;;;;;;1480845;40;20040;-61
2021/05/17 03:37:52;;;;;;;1.55;0.70;;;;;;;;;;1480618;40;20021;-62
2021/05/17 03:38:53;;;;;;;1.50;0.60;;;;;;;;;;1480602;40;20040;-62
2021/05/17 03:39:54;;;;;;;0.88;0.50;;;;;;;;;;1480604;40;20386;-62
2021/05/17 03:40:55;;;;;;;1.40;0.60;;;;;;;;;;1480810;40;20038;-61
2021/05/17 03:41:56;;;;;;;0.88;0.40;;;;;;;;;;1480645;40;20397;-62
2021/05/17 03:42:58;;;;;;;0.82;0.50;;;;;;;;;;1480776;40;20033;-62
2021/05/17 03:43:59;;;;;;;1.50;0.60;;;;;;;;;;1480569;40;20037;-62
2021/05/17 03:45:00;;;;;;;1.40;0.60;;;;;;;;;;1480638;40;20389;-62
2021/05/17 03:46:01;;;;;;;2.35;0.70;;;;;;;;;;1480571;40;20032;-62
2021/05/17 03:47:03;;;;;;;1.38;0.50;;;;;;;;;;1480826;40;20032;-62
2021/05/17 03:48:05;;;;;;;1.52;0.50;;;;;;;;;;1480794;40;20037;-62
2021/05/17 03:49:05;;;;;;;0.95;0.40;;;;;;;;;;1480772;40;20029;-62
2021/05/17 03:50:09;;;;;;;0.82;0.50;;;;;;;;;;1480516;40;20419;-62
2021/05/17 03:51:11;;;;;;;1.35;0.60;;;;;;;;;;1480793;40;20037;-62
2021/05/17 03:52:12;;;;;;;1.45;0.60;;;;;;;;;;1480796;40;20030;-62
2021/05/17 03:53:13;;;;;;;1.58;0.65;;;;;;;;;;1480752;40;20122;-62
2021/05/17 03:54:14;;;;;;;1.95;0.52;;;;;;;;;;1480618;40;20115;-62
2021/05/17 03:55:16;;;;;;;0.57;0.50;;;;;;;;;;1480540;40;20404;-62
2021/05/17 03:56:16;;;;;;;1.23;0.80;;;;;;;;;;1480791;40;20033;-62
2021/05/17 03:57:18;;;;;;;1.63;0.50;;;;;;;;;;1480118;40;20080;-61
2021/05/17 03:58:19;;;;;;;1.80;0.70;;;;;;;;;;1480292;40;20030;-62
2021/05/17 03:59:21;;;;;;;1.05;0.55;;;;;;;;;;1480764;40;20041;-62
2021/05/17 04:00:22;;;;;;;0.75;0.57;;;;;;;;;;1480669;40;20055;-62
2021/05/17 04:01:24;;;;;;;1.38;0.52;;;;;;;;;;1480630;40;20029;-62
2021/05/17 04:02:25;;;;;;;0.55;0.43;;;;;;;;;;1480708;40;20036;-62
2021/05/17 04:03:27;;;;;;;1.77;0.60;;;;;;;;;;1480611;40;20041;-62
2021/05/17 04:04:34;;;;;;;1.27;0.60;;;;;;;;;;1480733;40;20061;-62
2021/05/17 04:05:38;;;;;;;1.95;0.60;;;;;;;;;;1480552;40;20021;-61
2021/05/17 04:06:46;;;;;;;1.10;0.60;;;;;;;;;;1480825;40;20045;-62
2021/05/17 04:13:20;;;;;;;1.05;0.60;;;;;;;;;;1480253;40;20044;-62
2021/05/17 04:14:21;;;;;;;2.63;0.70;;;;;;;;;;1480253;40;20112;-62
2021/05/17 04:15:23;;;;;;;1.75;0.73;;;;;;;;;;1480585;40;20311;-62
2021/05/17 04:16:24;;;;;;;1.60;0.70;;;;;;;;;;1480325;40;20030;-62
2021/05/17 04:17:25;;;;;;;1.65;0.60;;;;;;;;;;1480451;40;20028;-61
2021/05/17 04:18:26;;;;;;;2.28;0.70;;;;;;;;;;1480796;40;20033;-62
2021/05/17 04:19:28;;;;;;;3.85;0.93;;;;;;;;;;1480616;40;20036;-62
2021/05/17 04:20:29;;;;;;;1.80;0.70;;;;;;;;;;1480151;40;20029;-62
2021/05/17 04:21:30;;;;;;;1.48;0.70;;;;;;;;;;1480004;40;20041;-61
2021/05/17 04:22:31;;;;;;;1.48;0.68;;;;;;;;;;1480798;40;20037;-62
2021/05/17 04:23:32;;;;;;;1.75;0.60;;;;;;;;;;1480652;40;20417;-61
2021/05/17 04:24:33;;;;;;;2.85;0.90;;;;;;;;;;1480538;40;20270;-62
2021/05/17 04:25:35;;;;;;;1.50;0.80;;;;;;;;;;1480563;40;20040;-63
2021/05/17 04:26:35;;;;;;;2.22;0.80;;;;;;;;;;1480505;40;20432;-62
2021/05/17 04:27:37;;;;;;;2.00;1.00;;;;;;;;;;1480534;40;20037;-62
2021/05/17 04:28:38;;;;;;;2.53;0.60;;;;;;;;;;1480516;40;20030;-62
2021/05/17 04:29:40;;;;;;;2.50;0.82;;;;;;;;;;1480451;40;20041;-62
2021/05/17 04:30:41;;;;;;;3.30;0.90;;;;;;;;;;1480670;40;20036;-61
2021/05/17 04:31:43;;;;;;;2.20;1.00;;;;;;;;;;1480726;40;20029;-62
2021/05/17 04:32:44;;;;;;;2.33;0.85;;;;;;;;;;1480627;40;20032;-62
2021/05/17 04:33:45;;;;;;;2.90;0.90;;;;;;;;;;1480682;40;20056;-61
2021/05/17 04:34:46;;;;;;;2.67;0.90;;;;;;;;;;1480581;40;20059;-62
2021/05/17 04:35:47;;;;;;;3.65;0.80;;;;;;;;;;1480615;40;20372;-62
2021/05/17 04:36:48;;;;;;;2.33;0.70;;;;;;;;;;1480488;40;20481;-62
2021/05/17 04:37:49;;;;;;;1.80;0.90;;;;;;;;;;1480630;40;20125;-62
2021/05/17 04:38:50;;;;;;;2.50;0.80;;;;;;;;;;1480559;40;20025;-62
2021/05/17 04:39:52;;;;;;;3.58;0.98;;;;;;;;;;1480658;40;20034;-62
2021/05/17 04:40:52;;;;;;;2.80;0.90;;;;;;;;;;1480620;40;20026;-62
2021/05/17 04:41:54;;;;;;;4.82;0.90;;;;;;;;;;1480670;40;20296;-62
2021/05/17 04:42:55;;;;;;;4.68;1.02;;;;;;;;;;1480708;40;20033;-62
2021/05/17 04:43:56;;;;;;;2.92;0.73;;;;;;;;;;1480626;40;20033;-62
2021/05/17 04:44:58;;;;;;;3.30;0.82;;;;;;;;;;1480436;40;20033;-62
2021/05/17 04:45:59;;;;;;;2.58;0.80;;;;;;;;;;1480451;40;20034;-61
2021/05/17 04:47:00;;;;;;;2.63;1.17;;;;;;;;;;1480604;40;20029;-62
2021/05/17 04:48:02;;;;;;;1.83;0.80;;;;;;;;;;1480664;40;20304;-62
2021/05/17 04:49:03;;;;;;;3.08;0.93;;;;;;;;;;1480647;40;20081;-62
2021/05/17 04:50:06;;;;;;;1.90;0.77;;;;;;;;;;1480346;40;20052;-62
2021/05/17 04:51:07;;;;;;;4.20;0.98;;;;;;;;;;1480447;40;20033;-62
2021/05/17 04:52:08;;;;;;;5.32;0.90;;;;;;;;;;1480531;40;20033;-62
2021/05/17 04:53:09;;;;;;;2.97;0.75;;;;;;;;;;1480604;40;20029;-62
2021/05/17 04:54:10;;;;;;;3.30;1.00;;;;;;;;;;1480365;40;20044;-61
2021/05/17 04:55:12;;;;;;;3.08;0.88;;;;;;;;;;1480629;40;20032;-62
2021/05/17 04:56:13;;;;;;;1.90;0.68;;;;;;;;;;1480455;40;20068;-61
2021/05/17 04:57:14;;;;;;;3.78;1.00;;;;;;;;;;1480640;40;20036;-61
2021/05/17 04:58:15;;;;;;;3.35;1.05;;;;;;;;;;1480595;40;20033;-62
2021/05/17 04:59:16;;;;;;;3.58;1.10;;;;;;;;;;1480575;40;20029;-62
2021/05/17 05:00:19;;;;;;;4.15;1.05;;;;;;;;;;1480527;40;20032;-62
2021/05/17 05:01:20;;;;;;;3.58;0.90;;;;;;;;;;1480415;40;20025;-62
2021/05/17 05:02:22;;;;;;;2.72;0.80;;;;;;;;;;1480586;40;20069;-62
2021/05/17 05:03:22;;;;;;;3.85;1.10;;;;;;;;;;1479883;40;20029;-62
2021/05/17 05:04:24;;;;;;;3.92;1.10;;;;;;;;;;1480116;40;20029;-62
2021/05/17 05:05:25;;;;;;;2.45;1.10;;;;;;;;;;1480604;40;20037;-63
2021/05/17 05:06:26;;;;;;;3.20;1.30;;;;;;;;;;1480395;40;20273;-62
2021/05/17 05:07:27;;;;;;;4.55;1.20;;;;;;;;;;1480591;40;20029;-62
2021/05/17 05:08:29;;;;;;;4.68;1.10;;;;;;;;;;1480387;40;20087;-62
2021/05/17 05:09:29;;;;;;;3.42;0.90;;;;;;;;;;1480356;40;20326;-62
2021/05/17 05:10:31;;;;;;;2.35;0.98;;;;;;;;;;1480400;40;20021;-62
2021/05/17 05:11:32;;;;;;;3.25;1.10;;;;;;;;;;1480608;40;20029;-62
2021/05/17 05:12:33;;;;;;;3.33;0.90;;;;;;;;;;1480410;40;20332;-62
2021/05/17 05:13:34;;;;;;;4.25;1.10;;;;;;;;;;1480235;40;20040;-62
2021/05/17 05:14:35;;;;;;;3.35;1.00;;;;;;;;;;1480573;40;20040;-62
2021/05/17 05:15:37;;;;;;;3.92;1.05;;;;;;;;;;1480363;40;20030;-62
2021/05/17 05:16:38;;;;;;;4.28;1.10;;;;;;;;;;1479988;40;20029;-62
2021/05/17 05:17:39;;;;;;;5.18;1.20;;;;;;;;;;1480114;40;20036;-62
2021/05/17 05:18:40;;;;;;;2.17;0.90;;;;;;;;;;1480548;40;20037;-62
2021/05/17 05:19:41;;;;;;;3.65;1.40;;;;;;;;;;1480357;40;20025;-62
2021/05/17 05:20:42;;;;;;;4.30;1.25;;;;;;;;;;1480358;40;20044;-62
2021/05/17 05:21:43;;;;;;;3.55;0.98;;;;;;;;;;1479961;40;20029;-62
2021/05/17 05:22:44;;;;;;;3.35;1.25;;;;;;;;;;1480161;40;20029;-62
2021/05/17 05:23:46;;;;;;;2.75;1.20;;;;;;;;;;1480277;40;20029;-62
2021/05/17 05:24:47;;;;;;;3.72;1.00;;;;;;;;;;1480497;40;20029;-62
2021/05/17 05:26:18;;;;;;;2.60;1.30;;;;;;;;;;1480324;40;20307;-62
2021/05/17 05:27:23;;;;;;;3.95;1.23;;;;;;;;;;1480425;40;20081;-62
2021/05/17 05:28:28;;;;;;;3.70;1.10;;;;;;;;;;1480304;40;20065;-62
2021/05/17 05:29:37;;;;;;;5.72;1.30;;;;;;;;;;1480517;40;20079;-62
2021/05/17 05:30:49;;;;;;;5.57;1.70;;;;;;;;;;1480530;40;20033;-62
2021/05/17 05:31:54;;;;;;;4.20;1.05;;;;;;;;;;1480640;40;20036;-62
2021/05/17 05:33:06;;;;;;;3.22;0.88;;;;;;;;;;1480340;40;20402;-62
2021/05/17 05:34:08;;;;;;;5.57;1.30;;;;;;;;;;1480546;40;20064;-61
2021/05/17 05:35:10;;;;;;;4.93;1.00;;;;;;;;;;1480463;40;20029;-63
2021/05/17 05:36:11;;;;;;;5.85;1.25;;;;;;;;;;1480301;40;20036;-62
2021/05/17 05:37:12;;;;;;;4.13;1.25;;;;;;;;;;1480433;40;20032;-62
2021/05/17 05:38:14;;;;;;;4.35;1.20;;;;;;;;;;1480493;40;20194;-62
2021/05/17 05:39:15;;;;;;;4.65;1.35;;;;;;;;;;1480395;40;20041;-62
2021/05/17 05:40:16;;;;;;;5.40;1.52;;;;;;;;;;1480474;40;20110;-62
2021/05/17 05:41:18;;;;;;;5.10;1.00;;;;;;;;;;1480454;40;20040;-62
2021/05/17 05:42:19;;;;;;;6.53;1.10;;;;;;;;;;1480249;40;20282;-62
2021/05/17 05:43:20;;;;;;;7.93;1.63;;;;;;;;;;1480408;40;20095;-62
2021/05/17 05:44:21;;;;;;;4.40;1.20;;;;;;;;;;1480277;40;20033;-62
2021/05/17 05:45:22;;;;;;;3.20;1.35;;;;;;;;;;1480467;40;20037;-61
2021/05/17 05:46:24;;;;;;;6.32;1.40;;;;;;;;;;1479839;40;20073;-62
2021/05/17 05:47:25;;;;;;;4.45;1.60;;;;;;;;;;1479838;40;20032;-62
2021/05/17 05:48:26;;;;;;;4.85;1.30;;;;;;;;;;1480294;40;20393;-62
2021/05/17 05:49:27;;;;;;;3.20;1.13;;;;;;;;;;1480326;40;20033;-62
2021/05/17 05:50:28;;;;;;;6.35;1.13;;;;;;;;;;1480378;40;20029;-62
2021/05/17 05:51:30;;;;;;;4.72;1.42;;;;;;;;;;1480496;40;20300;-62
2021/05/17 05:52:32;;;;;;;3.65;1.08;;;;;;;;;;1480357;40;20037;-62
2021/05/17 05:53:33;;;;;;;6.03;1.05;;;;;;;;;;1480443;40;20041;-61
2021/05/17 05:54:34;;;;;;;3.72;1.20;;;;;;;;;;1480217;40;20289;-62
2021/05/17 05:55:36;;;;;;;4.15;1.50;;;;;;;;;;1480218;40;20033;-62
2021/05/17 05:56:37;;;;;;;5.05;1.40;;;;;;;;;;1480463;40;20040;-62
2021/05/17 05:57:41;;;;;;;4.10;1.10;;;;;;;;;;1480520;40;20052;-62
2021/05/17 05:58:42;;;;;;;4.22;1.40;;;;;;;;;;1480449;40;20117;-62
2021/05/17 05:59:44;;;;;;;4.75;1.30;;;;;;;;;;1480343;40;20033;-63
2021/05/17 06:00:45;;;;;;;3.65;1.20;;;;;;;;;;1480244;40;20300;-62
2021/05/17 06:01:47;;;;;;;4.18;1.45;;;;;;;;;;1480259;40;20025;-62
2021/05/17 06:02:48;;;;;;;4.38;1.27;;;;;;;;;;1480221;40;20312;-62
2021/05/17 06:03:50;;;;;;;5.30;1.40;;;;;;;;;;1480213;40;20037;-62
2021/05/17 06:04:50;;;;;;;7.22;1.48;;;;;;;;;;1480232;40;20106;-62
2021/05/17 06:05:52;;;;;;;5.43;1.30;;;;;;;;;;1480386;40;20115;-61
2021/05/17 06:06:53;;;;;;;5.65;1.27;;;;;;;;;;1480272;40;20482;-62
2021/05/17 06:07:56;;;;;;;4.97;1.40;;;;;;;;;;1480436;40;20091;-62
2021/05/17 06:08:57;;;;;;;4.50;1.42;;;;;;;;;;1480506;40;20029;-62
2021/05/17 06:09:59;;;;;;;3.50;1.08;;;;;;;;;;1480214;40;20032;-62
2021/05/17 06:11:01;;;;;;;5.47;1.52;;;;;;;;;;1480228;40;20033;-62
2021/05/17 06:12:02;;;;;;;3.58;1.00;;;;;;;;;;1480271;40;20059;-62
2021/05/17 06:13:04;;;;;;;5.93;1.45;;;;;;;;;;1480293;40;20033;-62
2021/05/17 06:14:06;;;;;;;5.03;1.33;;;;;;;;;;1480295;40;20124;-63
2021/05/17 06:15:08;;;;;;;7.30;1.42;;;;;;;;;;1480676;40;20033;-59
2021/05/17 06:16:10;;;;;;;5.10;1.25;;;;;;;;;;1480178;40;20308;-59
2021/05/17 06:17:13;;;;;;;4.78;1.27;;;;;;;;;;1480345;40;20034;-58
2021/05/17 06:18:15;;;;;;;6.15;1.58;;;;;;;;;;1480179;40;20033;-58
2021/05/17 06:19:16;;;;;;;5.05;1.45;;;;;;;;;;1480226;40;20396;-59
2021/05/17 06:20:19;;;;;;;5.40;1.60;;;;;;;;;;1480311;40;20033;-59